Time;durP1;ratioP1;P1;durP2;ratioP2;P2;SDS_P1;SDS_P2;PMS_P1;PMS_P2;Temp;Humidity;BMP_temperature;BMP_pressure;BME280_temperature;BME280_humidity;BME280_pressure;Samples;Min_cycle;Max_cycle;Signal;HPM_P1;HPM_P2
2022/06/03 00:01:19;;;;;;;2.80;1.90;;;15.90;89.60;;;;;;5012393;28;20025;-75
2022/06/03 00:04:27;;;;;;;2.80;1.90;;;15.90;89.60;;;;;;5004583;28;20093;-76
2022/06/03 00:07:07;;;;;;;2.90;1.90;;;15.90;89.50;;;;;;5004728;28;20033;-75
2022/06/03 00:09:50;;;;;;;2.50;1.80;;;15.90;89.60;;;;;;5012862;28;20113;-75
2022/06/03 00:12:18;;;;;;;3.35;2.03;;;15.90;89.60;;;;;;4994493;28;20507;-77
2022/06/03 00:14:56;;;;;;;3.20;1.90;;;15.90;89.60;;;;;;4994220;28;20026;-76
2022/06/03 00:17:43;;;;;;;3.58;2.15;;;15.90;89.50;;;;;;4992658;28;20046;-75
2022/06/03 00:20:32;;;;;;;3.60;2.30;;;15.90;89.40;;;;;;4992830;28;20034;-75
2022/06/03 00:23:02;;;;;;;3.10;2.10;;;15.90;89.30;;;;;;5004373;28;20042;-75
2022/06/03 00:25:51;;;;;;;2.72;2.00;;;16.00;89.10;;;;;;5006443;28;20081;-75
2022/06/03 00:28:27;;;;;;;2.28;1.75;;;16.00;89.00;;;;;;4993485;28;20034;-75
2022/06/03 00:31:12;;;;;;;3.78;2.10;;;16.00;88.80;;;;;;4996556;28;20491;-75
2022/06/03 00:33:55;;;;;;;2.97;1.98;;;16.00;88.70;;;;;;4994019;28;20026;-76
2022/06/03 00:36:39;;;;;;;3.53;2.15;;;16.00;88.70;;;;;;4994191;28;20121;-75
2022/06/03 00:39:38;;;;;;;3.75;2.40;;;16.00;88.70;;;;;;4993574;28;20034;-75
2022/06/03 00:42:17;;;;;;;3.83;2.00;;;16.00;88.90;;;;;;4994600;28;20027;-75
2022/06/03 00:45:10;;;;;;;3.83;2.10;;;15.90;89.40;;;;;;5011189;28;20033;-75
2022/06/03 00:48:10;;;;;;;2.85;1.95;;;15.90;89.60;;;;;;5012764;28;20026;-75
2022/06/03 00:51:16;;;;;;;2.97;2.00;;;15.90;89.20;;;;;;4993123;28;20044;-75
2022/06/03 00:53:47;;;;;;;2.83;1.77;;;15.90;89.30;;;;;;4993446;28;20022;-75
2022/06/03 00:56:19;;;;;;;2.75;1.90;;;15.90;89.30;;;;;;4992245;28;20065;-75
2022/06/03 00:58:51;;;;;;;;;;;15.90;89.40;;;;;;4992487;28;20068;-75
2022/06/03 01:01:44;;;;;;;2.90;1.85;;;15.90;89.50;;;;;;5010797;28;19925;-75
2022/06/03 01:04:18;;;;;;;3.00;1.80;;;15.80;89.50;;;;;;4993757;28;20395;-75
2022/06/03 01:07:06;;;;;;;2.88;1.95;;;15.90;89.50;;;;;;5004828;28;20026;-75
2022/06/03 01:09:47;;;;;;;2.35;1.65;;;15.90;89.60;;;;;;5011313;28;20062;-76
2022/06/03 01:12:30;;;;;;;;;;;15.80;89.50;;;;;;5009039;28;20038;-75
2022/06/03 01:15:18;;;;;;;3.20;1.73;;;15.80;89.60;;;;;;5012424;28;19905;-74
2022/06/03 01:18:16;;;;;;;2.90;1.90;;;15.80;89.60;;;;;;5012567;28;20108;-74
2022/06/03 01:21:01;;;;;;;3.00;1.85;;;15.80;89.60;;;;;;4995450;28;20100;-75
2022/06/03 01:23:37;;;;;;;3.35;2.00;;;15.80;89.60;;;;;;5012513;28;20026;-75
2022/06/03 01:26:17;;;;;;;3.25;2.00;;;15.70;89.50;;;;;;5019101;28;20033;-75
2022/06/03 01:29:03;;;;;;;2.90;1.85;;;15.80;89.60;;;;;;5012072;28;20034;-74
2022/06/03 01:31:56;;;;;;;3.40;2.00;;;15.80;89.50;;;;;;5011025;28;20033;-75
2022/06/03 01:34:40;;;;;;;2.90;1.90;;;15.90;89.40;;;;;;5011771;28;20029;-75
2022/06/03 01:37:30;;;;;;;2.75;1.80;;;15.90;89.20;;;;;;5009928;28;20089;-75
2022/06/03 01:40:17;;;;;;;3.47;1.92;;;15.90;89.10;;;;;;4998604;28;20030;-76
2022/06/03 01:42:58;;;;;;;3.30;1.90;;;15.90;88.90;;;;;;4992604;28;20041;-76
2022/06/03 01:45:47;;;;;;;2.97;2.10;;;15.90;88.80;;;;;;4998098;28;20057;-75
2022/06/03 01:48:44;;;;;;;3.15;2.08;;;15.90;88.70;;;;;;5011626;28;20022;-75
2022/06/03 01:51:47;;;;;;;3.40;2.08;;;15.90;88.70;;;;;;4999876;28;20018;-75
2022/06/03 01:54:46;;;;;;;3.78;2.20;;;15.90;88.90;;;;;;4994328;28;20042;-74
2022/06/03 01:57:30;;;;;;;3.20;2.10;;;15.90;89.00;;;;;;5002567;28;20026;-75
2022/06/03 02:00:19;;;;;;;2.92;1.92;;;15.90;89.20;;;;;;5005220;28;20030;-76
2022/06/03 02:03:22;;;;;;;3.53;2.15;;;15.80;89.20;;;;;;4998287;28;20110;-75
2022/06/03 02:06:10;;;;;;;3.17;1.90;;;15.90;89.30;;;;;;5008545;28;20487;-76
2022/06/03 02:09:01;;;;;;;2.70;1.77;;;15.80;89.40;;;;;;5006781;28;20109;-76
2022/06/03 02:11:29;;;;;;;2.90;1.98;;;15.80;89.50;;;;;;4997916;28;20033;-75
2022/06/03 02:14:32;;;;;;;2.72;1.90;;;15.80;89.40;;;;;;5011547;28;20391;-75
2022/06/03 02:17:20;;;;;;;2.90;2.00;;;15.80;89.40;;;;;;5007053;28;20034;-74
2022/06/03 02:19:48;;;;;;;3.03;1.90;;;15.80;89.50;;;;;;5009715;28;20494;-76
2022/06/03 02:22:46;;;;;;;3.17;1.92;;;15.80;89.40;;;;;;5008425;28;20033;-75
2022/06/03 02:25:34;;;;;;;2.90;1.83;;;15.80;89.50;;;;;;4996444;28;20468;-74
2022/06/03 02:28:12;;;;;;;2.83;1.92;;;15.80;89.60;;;;;;4999978;28;20045;-75
2022/06/03 02:31:01;;;;;;;2.42;1.73;;;15.80;89.50;;;;;;5010044;28;20022;-75
2022/06/03 02:34:11;;;;;;;3.25;2.05;;;15.80;89.60;;;;;;5007193;28;20117;-75
2022/06/03 02:37:03;;;;;;;3.47;2.08;;;15.80;89.50;;;;;;5005273;28;20399;-74
2022/06/03 02:40:03;;;;;;;3.75;2.00;;;15.80;89.60;;;;;;5016064;28;20023;-75
2022/06/03 02:43:17;;;;;;;3.58;2.15;;;15.80;89.50;;;;;;5007061;28;20411;-74
2022/06/03 02:46:09;;;;;;;3.20;2.00;;;15.90;89.30;;;;;;4950742;28;20064;-75
2022/06/03 02:49:07;;;;;;;3.22;2.17;;;15.80;89.10;;;;;;4994233;28;20042;-75
2022/06/03 02:52:05;;;;;;;3.42;2.03;;;15.90;89.00;;;;;;5000356;28;20470;-75
2022/06/03 02:54:56;;;;;;;3.10;2.13;;;15.90;88.80;;;;;;5014136;28;20037;-75
2022/06/03 02:58:05;;;;;;;3.17;1.98;;;15.90;88.80;;;;;;5004778;28;20038;-75
2022/06/03 03:00:39;;;;;;;3.35;2.30;;;15.90;88.80;;;;;;5005517;28;20092;-75
2022/06/03 03:03:28;;;;;;;3.15;2.20;;;15.90;89.00;;;;;;5011016;28;20116;-75
2022/06/03 03:06:12;;;;;;;3.83;2.10;;;15.90;89.10;;;;;;5010651;28;20018;-75
2022/06/03 03:09:15;;;;;;;2.88;1.80;;;15.90;89.10;;;;;;4995786;28;20030;-74
2022/06/03 03:12:02;;;;;;;3.40;1.83;;;15.80;89.20;;;;;;5008163;28;20431;-75
2022/06/03 03:15:13;;;;;;;3.50;2.13;;;15.80;89.20;;;;;;5014354;28;20033;-75
2022/06/03 03:18:05;;;;;;;4.07;2.10;;;15.80;89.30;;;;;;5013004;28;20495;-74
2022/06/03 03:20:49;;;;;;;3.47;2.28;;;15.80;89.30;;;;;;5014297;28;20120;-75
2022/06/03 03:23:23;;;;;;;2.65;1.92;;;15.80;89.40;;;;;;5014973;28;20060;-74
2022/06/03 03:26:18;;;;;;;3.08;1.90;;;15.80;89.50;;;;;;5012887;28;20558;-74
2022/06/03 03:29:07;;;;;;;4.13;2.40;;;15.80;89.50;;;;;;4997690;28;20506;-75
2022/06/03 03:32:01;;;;;;;2.42;1.80;;;15.80;89.50;;;;;;5012964;28;20072;-75
2022/06/03 03:34:38;;;;;;;2.58;1.88;;;15.80;89.50;;;;;;5029568;28;20081;-76
2022/06/03 03:37:41;;;;;;;2.67;1.95;;;15.80;89.50;;;;;;5018209;28;20041;-75
2022/06/03 03:40:24;;;;;;;3.08;2.00;;;15.80;89.50;;;;;;5010378;28;20112;-75
2022/06/03 03:43:09;;;;;;;3.75;2.00;;;15.80;89.40;;;;;;5009542;28;20073;-75
2022/06/03 03:46:04;;;;;;;2.90;2.00;;;15.80;89.40;;;;;;5013516;28;20018;-76
2022/06/03 03:48:35;;;;;;;3.40;2.20;;;15.80;89.50;;;;;;4994642;28;20467;-76
2022/06/03 03:51:10;;;;;;;;;;;15.80;89.50;;;;;;4995808;28;20546;-76
2022/06/03 03:54:09;;;;;;;3.50;2.22;;;15.80;89.30;;;;;;5010606;28;19914;-76
2022/06/03 03:57:21;;;;;;;2.88;2.00;;;15.80;89.20;;;;;;5002758;28;20030;-72
2022/06/03 04:00:00;;;;;;;3.85;2.20;;;15.90;89.00;;;;;;5005569;28;20033;-75
2022/06/03 04:02:40;;;;;;;3.65;2.13;;;15.90;88.90;;;;;;5009452;28;20026;-75
2022/06/03 04:05:24;;;;;;;3.20;2.17;;;15.90;88.70;;;;;;4997407;28;20029;-75
2022/06/03 04:08:11;;;;;;;3.28;2.17;;;15.90;88.70;;;;;;5008682;28;20023;-75
2022/06/03 04:11:01;;;;;;;4.25;2.50;;;15.90;88.70;;;;;;5011782;28;20518;-74
2022/06/03 04:13:49;;;;;;;3.05;2.13;;;15.90;88.70;;;;;;5008541;28;20101;-75
2022/06/03 04:16:38;;;;;;;3.50;2.28;;;15.90;89.00;;;;;;5008143;28;20040;-75
2022/06/03 04:19:37;;;;;;;3.03;2.10;;;15.90;89.10;;;;;;5008960;28;20034;-74
2022/06/03 04:22:15;;;;;;;3.87;2.20;;;15.80;89.10;;;;;;5012044;28;20030;-75
2022/06/03 04:24:53;;;;;;;3.25;2.10;;;15.80;89.10;;;;;;4993383;28;20407;-75
2022/06/03 04:27:58;;;;;;;3.53;2.20;;;15.80;89.20;;;;;;5020803;28;20417;-75
2022/06/03 04:31:01;;;;;;;3.50;2.00;;;15.80;89.80;;;;;;5019832;28;20041;-74
2022/06/03 04:33:53;;;;;;;3.00;1.95;;;15.80;89.30;;;;;;5005815;28;20125;-75
2022/06/03 04:36:37;;;;;;;3.33;2.30;;;15.80;89.30;;;;;;5018304;28;20088;-76
2022/06/03 04:39:40;;;;;;;2.92;2.13;;;15.80;89.30;;;;;;5013529;28;20018;-76
2022/06/03 04:42:34;;;;;;;3.65;2.20;;;15.80;89.20;;;;;;4999282;28;20027;-75
2022/06/03 04:45:12;;;;;;;3.65;2.22;;;15.80;89.20;;;;;;4992125;28;20034;-75
2022/06/03 04:48:07;;;;;;;3.10;2.20;;;15.80;89.20;;;;;;5004995;28;20033;-76
2022/06/03 04:51:15;;;;;;;3.35;2.20;;;15.80;89.20;;;;;;4994868;28;20077;-75
2022/06/03 04:54:19;;;;;;;3.50;2.15;;;15.80;89.20;;;;;;5002463;28;20284;-75
2022/06/03 04:57:03;;;;;;;3.45;2.15;;;15.80;89.70;;;;;;4991274;28;20022;-74
2022/06/03 04:59:38;;;;;;;3.80;2.17;;;15.80;89.10;;;;;;5001957;28;20030;-75
2022/06/03 05:02:31;;;;;;;3.53;2.30;;;15.80;89.20;;;;;;5002878;28;20058;-75
2022/06/03 05:05:34;;;;;;;3.65;2.10;;;15.80;89.00;;;;;;5005402;28;20038;-74
2022/06/03 05:08:37;;;;;;;3.72;2.30;;;15.90;88.90;;;;;;4995398;28;20032;-75
2022/06/03 05:11:21;;;;;;;3.67;2.30;;;15.90;88.70;;;;;;5007457;28;20105;-75
2022/06/03 05:14:31;;;;;;;3.50;2.17;;;15.90;88.50;;;;;;4993279;28;20462;-75
2022/06/03 05:17:30;;;;;;;4.43;2.47;;;16.00;88.40;;;;;;5003853;28;20032;-75
2022/06/03 05:20:05;;;;;;;2.97;2.10;;;15.90;88.20;;;;;;5005101;28;20034;-75
2022/06/03 05:22:57;;;;;;;3.55;2.22;;;15.90;88.10;;;;;;5005274;28;20026;-74
2022/06/03 05:25:58;;;;;;;3.80;2.30;;;15.90;88.20;;;;;;5005595;28;20391;-74
2022/06/03 05:28:45;;;;;;;4.47;2.40;;;15.90;88.30;;;;;;5022571;28;20514;-77
2022/06/03 05:31:30;;;;;;;4.25;2.53;;;15.90;88.40;;;;;;4989907;28;20054;-74
2022/06/03 05:34:47;;;;;;;4.57;2.47;;;15.90;88.40;;;;;;4995318;28;20030;-76
2022/06/03 05:37:45;;;;;;;4.20;2.50;;;15.90;88.50;;;;;;4991291;28;20026;-73
2022/06/03 05:40:15;;;;;;;3.75;2.50;;;15.90;88.50;;;;;;4992836;28;20029;-74
2022/06/03 05:42:59;;;;;;;4.53;2.80;;;15.90;88.60;;;;;;4992669;28;20511;-74
2022/06/03 05:46:07;;;;;;;3.85;2.40;;;15.90;88.60;;;;;;4992879;28;20401;-75
2022/06/03 05:49:05;;;;;;;3.47;2.08;;;15.90;88.60;;;;;;4991249;28;20029;-75
2022/06/03 05:51:56;;;;;;;3.65;2.35;;;15.90;88.50;;;;;;4992638;28;20030;-75
2022/06/03 05:54:33;;;;;;;4.13;2.63;;;15.90;88.60;;;;;;4991186;28;20026;-75
2022/06/03 05:57:22;;;;;;;3.72;2.35;;;15.90;88.60;;;;;;4992209;28;20105;-76
2022/06/03 06:00:02;;;;;;;4.32;2.60;;;15.90;88.50;;;;;;4992588;28;20049;-75
2022/06/03 06:02:49;;;;;;;4.30;2.67;;;15.90;88.50;;;;;;4991313;28;20049;-75
2022/06/03 06:05:30;;;;;;;4.63;2.45;;;15.90;88.50;;;;;;4992424;28;20398;-76
2022/06/03 06:08:25;;;;;;;4.70;2.58;;;15.90;88.50;;;;;;4991998;28;20145;-75
2022/06/03 06:11:18;;;;;;;3.75;2.55;;;15.90;88.50;;;;;;4991049;28;20443;-75
2022/06/03 06:14:13;;;;;;;3.90;2.40;;;15.90;88.40;;;;;;4990980;28;20122;-75
2022/06/03 06:16:41;;;;;;;4.20;2.55;;;15.90;88.20;;;;;;4990726;28;20033;-75
2022/06/03 06:19:21;;;;;;;4.07;2.70;;;16.00;88.10;;;;;;4992155;28;20019;-75
2022/06/03 06:22:16;;;;;;;4.20;2.70;;;16.00;87.90;;;;;;4990228;28;20030;-74
2022/06/03 06:24:54;;;;;;;3.92;2.50;;;16.10;87.80;;;;;;4992286;28;20022;-75
2022/06/03 06:27:47;;;;;;;3.80;2.40;;;16.10;87.60;;;;;;4991739;28;20480;-75
2022/06/03 06:30:21;;;;;;;4.15;2.60;;;16.10;87.50;;;;;;4991988;28;20029;-75
2022/06/03 06:33:36;;;;;;;2.83;2.00;;;16.10;87.50;;;;;;4992264;28;20030;-75
2022/06/03 06:36:18;;;;;;;4.00;2.30;;;16.10;87.50;;;;;;4992131;28;20025;-75
2022/06/03 06:38:52;;;;;;;3.88;2.60;;;16.10;87.60;;;;;;4991636;28;20027;-76
2022/06/03 06:41:55;;;;;;;4.05;2.72;;;16.10;87.80;;;;;;4992175;28;20092;-75
2022/06/03 06:44:39;;;;;;;3.97;2.60;;;16.10;87.90;;;;;;4993045;28;20033;-75
2022/06/03 06:47:28;;;;;;;3.65;2.58;;;16.10;87.90;;;;;;4992413;28;20029;-76
2022/06/03 06:50:24;;;;;;;4.40;2.65;;;16.10;87.90;;;;;;4991700;28;20023;-76
2022/06/03 06:52:52;;;;;;;3.80;2.60;;;16.10;87.90;;;;;;4991874;28;20039;-75
2022/06/03 06:55:41;;;;;;;4.57;2.83;;;16.10;87.80;;;;;;4991839;28;20027;-75
2022/06/03 06:58:33;;;;;;;4.70;2.92;;;16.10;87.80;;;;;;5006512;28;20026;-75
2022/06/03 07:01:02;;;;;;;4.50;2.97;;;16.10;87.70;;;;;;4991927;28;20022;-75
2022/06/03 07:03:55;;;;;;;3.40;2.30;;;16.10;87.60;;;;;;4990530;28;20022;-75
2022/06/03 07:06:40;;;;;;;3.97;2.70;;;16.10;87.50;;;;;;4990434;28;20105;-75
2022/06/03 07:09:11;;;;;;;3.55;2.35;;;16.20;87.50;;;;;;4990454;28;20023;-75
2022/06/03 07:11:54;;;;;;;4.53;2.65;;;16.20;87.40;;;;;;4990532;28;20032;-74
2022/06/03 07:14:25;;;;;;;4.05;2.60;;;16.20;87.30;;;;;;4990390;28;20034;-75
2022/06/03 07:20:11;;;;;;;4.63;3.10;;;16.30;87.20;;;;;;4991768;28;20064;-76
2022/06/03 07:23:04;;;;;;;4.93;2.97;;;16.30;87.30;;;;;;4991564;28;20459;-75
2022/06/03 07:25:45;;;;;;;5.05;3.33;;;16.30;87.10;;;;;;5006754;28;20034;-75
2022/06/03 07:28:27;;;;;;;;;;;16.30;86.90;;;;;;5006756;28;20018;-75
2022/06/03 07:30:57;;;;;;;5.22;3.20;;;16.40;86.70;;;;;;4991617;28;19906;-75
2022/06/03 07:33:31;;;;;;;5.35;3.45;;;16.40;86.50;;;;;;4992245;28;20181;-75
2022/06/03 07:36:01;;;;;;;5.32;3.60;;;16.50;86.40;;;;;;4995136;28;20053;-75
2022/06/03 07:38:38;;;;;;;5.38;3.72;;;16.50;86.20;;;;;;5009821;28;20126;-75
2022/06/03 07:41:22;;;;;;;5.18;3.38;;;16.50;86.10;;;;;;4993622;28;20030;-75
2022/06/03 07:43:54;;;;;;;4.72;3.20;;;16.50;86.10;;;;;;4999084;28;20050;-75
2022/06/03 07:46:41;;;;;;;5.28;3.53;;;16.50;85.90;;;;;;5012331;28;20086;-75
2022/06/03 07:49:08;;;;;;;5.13;3.50;;;16.50;86.10;;;;;;5013283;28;20014;-75
2022/06/03 07:51:41;;;;;;;4.80;3.42;;;16.50;86.20;;;;;;5012593;28;20028;-76
2022/06/03 07:54:26;;;;;;;4.85;3.30;;;16.50;86.20;;;;;;5013128;28;20037;-75
2022/06/03 07:57:04;;;;;;;4.90;3.60;;;16.50;86.20;;;;;;5012829;28;20022;-75
2022/06/03 07:59:32;;;;;;;5.47;3.60;;;16.50;86.20;;;;;;5014117;28;20084;-75
2022/06/03 08:02:05;;;;;;;4.95;3.13;;;16.50;86.10;;;;;;5029516;28;20022;-76
2022/06/03 08:04:36;;;;;;;5.35;3.65;;;16.50;86.10;;;;;;5014301;28;20105;-75
2022/06/03 08:12:39;;;;;;;5.32;3.58;;;16.60;86.00;;;;;;5014482;28;20068;-75
2022/06/03 08:15:22;;;;;;;5.55;3.72;;;16.50;85.90;;;;;;5012771;28;20459;-75
2022/06/03 08:17:50;;;;;;;5.15;3.55;;;16.60;85.90;;;;;;5013636;28;20037;-75
2022/06/03 08:20:18;;;;;;;5.28;3.50;;;16.60;85.90;;;;;;5013743;28;20179;-75
2022/06/03 08:22:45;;;;;;;5.35;3.33;;;16.60;85.90;;;;;;5013829;28;20407;-75
2022/06/03 08:25:15;;;;;;;5.53;3.70;;;16.60;85.80;;;;;;5013552;28;20049;-75
2022/06/03 08:27:41;;;;;;;5.60;3.55;;;16.60;85.70;;;;;;5013466;28;20026;-75
2022/06/03 08:30:10;;;;;;;5.50;3.70;;;16.60;85.70;;;;;;5013692;28;20164;-75
2022/06/03 08:32:40;;;;;;;5.65;3.80;;;16.70;85.70;;;;;;5013549;28;20037;-75
2022/06/03 08:35:10;;;;;;;5.47;3.40;;;16.70;85.70;;;;;;5013577;28;20395;-75
2022/06/03 08:37:49;;;;;;;5.82;3.63;;;16.70;85.60;;;;;;5011962;28;20018;-75
2022/06/03 08:40:36;;;;;;;5.13;3.50;;;16.80;85.40;;;;;;5013477;28;20062;-75
2022/06/03 08:43:21;;;;;;;5.30;3.53;;;16.80;85.20;;;;;;5013170;28;20057;-75
2022/06/03 08:46:26;;;;;;;5.38;3.65;;;16.80;85.00;;;;;;5012581;28;20056;-75
2022/06/03 08:48:59;;;;;;;4.80;3.45;;;16.90;84.80;;;;;;5013131;28;20121;-76
2022/06/03 08:51:34;;;;;;;5.20;3.58;;;16.90;84.70;;;;;;5013135;28;20127;-75
2022/06/03 08:54:06;;;;;;;4.45;3.00;;;16.90;84.60;;;;;;5011904;28;20025;-75
2022/06/03 08:56:35;;;;;;;5.07;3.38;;;16.90;84.60;;;;;;5013266;28;20065;-75
2022/06/03 08:59:16;;;;;;;5.20;3.38;;;16.90;84.70;;;;;;5013269;28;20030;-75
2022/06/03 09:01:46;;;;;;;5.00;3.42;;;16.90;84.70;;;;;;5012563;28;20065;-76
2022/06/03 09:04:12;;;;;;;4.95;3.42;;;16.90;85.30;;;;;;5012754;28;20463;-76
2022/06/03 09:06:42;;;;;;;5.18;3.55;;;16.90;84.80;;;;;;5012990;28;20116;-75
2022/06/03 09:09:29;;;;;;;5.18;3.30;;;16.80;84.80;;;;;;5012953;28;20545;-75
2022/06/03 09:12:03;;;;;;;5.20;3.50;;;16.90;84.90;;;;;;5013132;28;20053;-75
2022/06/03 09:14:30;;;;;;;5.30;3.60;;;16.90;84.90;;;;;;5011727;28;20037;-75
2022/06/03 09:17:07;;;;;;;5.03;3.38;;;16.90;84.90;;;;;;5012517;28;20715;-75
2022/06/03 09:19:40;;;;;;;5.32;3.65;;;16.90;84.90;;;;;;5012726;28;20049;-75
2022/06/03 09:22:24;;;;;;;5.00;3.47;;;16.90;84.90;;;;;;5011471;28;20092;-76
2022/06/03 09:24:50;;;;;;;5.30;3.65;;;16.90;84.80;;;;;;5012575;28;20025;-75
2022/06/03 09:27:16;;;;;;;5.13;3.45;;;16.90;84.80;;;;;;5012417;28;20020;-75
2022/06/03 09:29:50;;;;;;;4.88;3.40;;;16.90;84.70;;;;;;5011411;28;20026;-75
2022/06/03 09:32:19;;;;;;;4.78;3.25;;;16.90;84.70;;;;;;5012665;28;20076;-74
2022/06/03 09:34:52;;;;;;;4.93;3.30;;;17.00;84.70;;;;;;5012460;28;20018;-75
2022/06/03 09:37:24;;;;;;;4.80;3.40;;;17.00;84.70;;;;;;5010836;28;20084;-75
2022/06/03 09:39:51;;;;;;;5.25;3.60;;;17.00;84.70;;;;;;5012274;28;20025;-75
2022/06/03 09:42:19;;;;;;;5.10;3.40;;;17.00;84.60;;;;;;5010989;28;20061;-75
2022/06/03 09:44:48;;;;;;;5.00;3.58;;;17.10;84.60;;;;;;5012446;28;20021;-75
2022/06/03 09:47:17;;;;;;;4.88;3.20;;;17.10;84.60;;;;;;5010816;28;20447;-75
2022/06/03 09:49:46;;;;;;;5.70;3.53;;;17.10;84.40;;;;;;5010808;28;20023;-75
2022/06/03 09:52:14;;;;;;;4.90;3.30;;;17.10;84.20;;;;;;5010921;28;20057;-75
2022/06/03 09:54:42;;;;;;;4.75;3.22;;;17.10;84.00;;;;;;5012960;28;20040;-74
2022/06/03 09:57:20;;;;;;;4.18;2.95;;;17.20;83.90;;;;;;5011796;28;20025;-75
2022/06/03 10:00:00;;;;;;;4.68;3.10;;;17.20;83.80;;;;;;5010951;28;20030;-74
2022/06/03 10:02:26;;;;;;;5.35;3.10;;;17.20;83.60;;;;;;5012247;28;20489;-74
2022/06/03 10:04:53;;;;;;;5.00;3.15;;;17.20;83.70;;;;;;5012116;28;20068;-74
2022/06/03 10:07:19;;;;;;;4.60;3.05;;;17.20;83.80;;;;;;5010360;28;20376;-75
2022/06/03 10:12:52;;;;;;;4.28;2.88;;;17.10;84.10;;;;;;5012344;28;20095;-75
2022/06/03 10:15:43;;;;;;;4.18;2.88;;;17.10;84.30;;;;;;5011944;28;20022;-75
2022/06/03 10:18:28;;;;;;;4.55;2.95;;;17.10;84.40;;;;;;5010379;28;20852;-75
2022/06/03 10:20:57;;;;;;;4.90;3.30;;;17.10;84.60;;;;;;5011671;28;20412;-74
2022/06/03 10:23:26;;;;;;;4.32;3.08;;;17.10;84.60;;;;;;5010406;28;20069;-75
2022/06/03 10:25:52;;;;;;;4.40;3.10;;;17.10;84.60;;;;;;5011897;28;20018;-74
2022/06/03 10:28:19;;;;;;;4.22;2.78;;;17.10;84.60;;;;;;5010336;28;20026;-74
2022/06/03 10:30:57;;;;;;;4.70;3.00;;;17.10;84.60;;;;;;5011825;28;20026;-75
2022/06/03 10:33:22;;;;;;;4.40;2.78;;;17.10;84.60;;;;;;5011814;28;20026;-74
2022/06/03 10:35:50;;;;;;;4.10;2.85;;;17.10;84.60;;;;;;5011801;28;20613;-75
2022/06/03 10:38:21;;;;;;;4.35;3.00;;;17.10;84.60;;;;;;5011291;28;20022;-75
2022/06/03 10:40:51;;;;;;;4.32;2.97;;;17.10;84.60;;;;;;5011637;28;20026;-75
2022/06/03 10:43:47;;;;;;;3.95;2.78;;;17.10;84.60;;;;;;5011648;28;20372;-75
2022/06/03 10:46:16;;;;;;;4.13;2.92;;;17.10;84.60;;;;;;5002363;28;20096;-75
2022/06/03 10:48:44;;;;;;;4.32;3.03;;;17.10;84.60;;;;;;5010824;28;20052;-75
2022/06/03 10:51:14;;;;;;;4.50;2.85;;;17.10;84.70;;;;;;5010638;28;20034;-75
2022/06/03 11:01:59;;;;;;;4.38;3.00;;;17.20;84.30;;;;;;5011012;28;20036;-75
2022/06/03 11:04:37;;;;;;;3.60;2.78;;;17.20;84.20;;;;;;5011064;28;20076;-75
2022/06/03 11:07:21;;;;;;;4.03;2.80;;;17.20;84.10;;;;;;5011064;28;20048;-79
2022/06/03 11:10:14;;;;;;;4.25;3.08;;;17.20;84.00;;;;;;5014588;28;20088;-75
2022/06/03 11:12:42;;;;;;;3.47;2.53;;;17.20;84.60;;;;;;5013690;28;20069;-75
2022/06/03 11:15:31;;;;;;;3.70;2.60;;;17.20;84.20;;;;;;5014048;28;20030;-74
2022/06/03 11:18:00;;;;;;;4.43;2.97;;;17.10;84.30;;;;;;5014602;28;20514;-76
2022/06/03 11:20:39;;;;;;;4.30;2.78;;;17.10;84.30;;;;;;5015855;28;20112;-75
2022/06/03 11:23:07;;;;;;;4.00;2.65;;;17.10;84.50;;;;;;5015891;28;20498;-75
2022/06/03 11:25:40;;;;;;;3.78;2.60;;;17.10;84.50;;;;;;5015242;28;20479;-75
2022/06/03 11:28:21;;;;;;;3.58;2.63;;;17.10;84.60;;;;;;5014519;28;20026;-74
2022/06/03 11:31:15;;;;;;;4.47;2.80;;;17.10;84.70;;;;;;5015171;28;20471;-74
2022/06/03 11:34:01;;;;;;;4.00;2.80;;;17.10;84.80;;;;;;5013828;28;20124;-75
2022/06/03 11:36:52;;;;;;;4.10;2.90;;;17.10;84.90;;;;;;5013559;28;20026;-76
2022/06/03 11:39:33;;;;;;;4.40;2.80;;;17.10;84.90;;;;;;5014774;28;20084;-75
2022/06/03 11:42:11;;;;;;;3.85;2.67;;;17.10;84.90;;;;;;5013490;28;20022;-74
2022/06/03 11:45:08;;;;;;;4.10;2.72;;;17.10;85.40;;;;;;5014651;28;20034;-74
2022/06/03 11:47:38;;;;;;;3.60;2.60;;;17.00;85.00;;;;;;5014346;28;20025;-75
2022/06/03 11:50:07;;;;;;;3.63;2.60;;;17.10;85.10;;;;;;5013105;28;20431;-75
2022/06/03 11:52:33;;;;;;;3.92;2.70;;;17.00;85.20;;;;;;5014519;28;20030;-75
2022/06/03 11:54:58;;;;;;;4.05;2.65;;;17.00;85.20;;;;;;5014434;28;20402;-75
2022/06/03 11:57:24;;;;;;;3.50;2.53;;;17.00;85.20;;;;;;5014218;28;20068;-75
2022/06/03 12:00:09;;;;;;;4.97;2.70;;;17.00;85.20;;;;;;5013098;28;20032;-74
2022/06/03 12:02:43;;;;;;;3.75;2.65;;;17.00;85.20;;;;;;5014246;28;20026;-75
2022/06/03 12:05:19;;;;;;;3.58;2.60;;;17.10;85.10;;;;;;5014272;28;20057;-75
2022/06/03 12:08:03;;;;;;;3.53;2.45;;;17.10;85.00;;;;;;5013967;28;20018;-75
2022/06/03 12:10:56;;;;;;;3.85;2.60;;;17.10;84.90;;;;;;5013096;28;20483;-75
2022/06/03 12:13:28;;;;;;;4.22;2.97;;;17.10;84.90;;;;;;5014116;28;20032;-74
2022/06/03 12:15:53;;;;;;;4.15;2.70;;;17.10;84.90;;;;;;5012927;28;20050;-74
2022/06/03 12:18:31;;;;;;;3.60;2.60;;;17.10;84.90;;;;;;5013910;28;20499;-74
2022/06/03 12:20:58;;;;;;;3.85;2.60;;;17.10;84.90;;;;;;5027744;28;20036;-75
2022/06/03 12:23:23;;;;;;;3.83;2.60;;;17.10;84.90;;;;;;5013855;28;20037;-74
2022/06/03 12:25:48;;;;;;;3.60;2.60;;;17.10;84.90;;;;;;5013969;28;20038;-76
2022/06/03 12:28:31;;;;;;;3.80;2.60;;;17.00;85.00;;;;;;5028691;28;20368;-75
2022/06/03 12:31:05;;;;;;;4.00;2.67;;;17.00;85.10;;;;;;5012578;28;20018;-74
2022/06/03 12:33:45;;;;;;;3.70;2.58;;;17.00;85.20;;;;;;5013726;28;20514;-74
2022/06/03 12:36:35;;;;;;;3.85;2.70;;;17.00;85.30;;;;;;5013770;28;20044;-75
2022/06/03 12:39:01;;;;;;;4.18;2.90;;;17.00;85.40;;;;;;5013300;28;20037;-75
2022/06/03 12:41:44;;;;;;;3.50;2.55;;;17.00;85.40;;;;;;5013667;28;20025;-75
2022/06/03 12:44:35;;;;;;;4.43;2.88;;;16.90;85.50;;;;;;5013543;28;20030;-75
2022/06/03 12:47:42;;;;;;;4.00;2.65;;;16.90;85.60;;;;;;5028546;28;20048;-75
2022/06/03 12:50:07;;;;;;;3.70;2.70;;;17.00;85.70;;;;;;5012269;28;20441;-75
2022/06/03 12:52:35;;;;;;;3.95;2.80;;;16.90;85.70;;;;;;5013428;28;20033;-75
2022/06/03 12:55:14;;;;;;;3.90;2.50;;;16.90;85.80;;;;;;5028652;28;20026;-74
2022/06/03 12:58:01;;;;;;;3.58;2.63;;;16.90;85.80;;;;;;5013152;28;20030;-75
2022/06/03 13:00:36;;;;;;;3.72;2.70;;;16.90;85.90;;;;;;5013371;28;20076;-75
2022/06/03 13:03:26;;;;;;;4.00;2.70;;;16.90;86.00;;;;;;5013220;28;20080;-75
2022/06/03 13:05:54;;;;;;;3.58;2.55;;;16.90;86.00;;;;;;5013240;28;20025;-76
2022/06/03 13:08:29;;;;;;;4.13;2.78;;;16.80;86.00;;;;;;5012664;28;20068;-75
2022/06/03 13:11:05;;;;;;;3.95;2.50;;;16.80;86.20;;;;;;5013158;28;20048;-75
2022/06/03 13:13:31;;;;;;;3.83;2.65;;;16.80;86.10;;;;;;5011608;28;20569;-75
2022/06/03 13:16:00;;;;;;;3.75;2.58;;;16.90;86.20;;;;;;5013043;28;20022;-76
2022/06/03 13:18:46;;;;;;;4.03;2.80;;;16.90;86.10;;;;;;5012566;28;20029;-75
2022/06/03 13:21:17;;;;;;;4.03;2.75;;;16.90;85.90;;;;;;5012787;28;20037;-75
2022/06/03 13:23:42;;;;;;;3.60;2.60;;;16.90;85.90;;;;;;5011691;28;20026;-76
2022/06/03 13:26:37;;;;;;;3.40;2.50;;;16.90;85.80;;;;;;5028032;28;20018;-75
2022/06/03 13:29:07;;;;;;;3.67;2.60;;;17.00;85.80;;;;;;5027655;28;20452;-75
2022/06/03 13:31:42;;;;;;;4.22;2.75;;;16.90;85.70;;;;;;5012431;28;20018;-75
2022/06/03 13:34:10;;;;;;;3.88;2.55;;;16.90;85.80;;;;;;5012668;28;20032;-75
2022/06/03 13:36:44;;;;;;;3.63;2.70;;;16.90;85.90;;;;;;5013481;28;20097;-73
2022/06/03 13:39:13;;;;;;;3.90;2.67;;;16.90;86.00;;;;;;5028863;28;20055;-75
2022/06/03 13:44:47;;;;;;;3.55;2.60;;;16.80;86.10;;;;;;5012493;28;20045;-75
2022/06/03 13:47:22;;;;;;;3.65;2.53;;;16.90;86.30;;;;;;5010915;28;20022;-75
2022/06/03 13:50:17;;;;;;;3.75;2.50;;;16.80;86.30;;;;;;5012357;28;20045;-75
2022/06/03 13:52:45;;;;;;;3.55;2.42;;;16.80;87.00;;;;;;5012419;28;20101;-74
2022/06/03 13:55:41;;;;;;;3.75;2.50;;;16.70;86.50;;;;;;5012238;28;20157;-75
2022/06/03 13:58:12;;;;;;;3.30;2.25;;;16.80;86.60;;;;;;5010759;28;20454;-76
2022/06/03 14:00:48;;;;;;;4.13;2.63;;;16.70;86.60;;;;;;5012281;28;20037;-74
2022/06/03 14:03:15;;;;;;;3.67;2.60;;;16.80;86.70;;;;;;5012182;28;20029;-75
2022/06/03 14:06:01;;;;;;;3.28;2.40;;;16.80;86.70;;;;;;5027370;28;20164;-75
2022/06/03 14:09:03;;;;;;;3.80;2.60;;;16.70;86.70;;;;;;5010534;28;20026;-75
2022/06/03 14:11:39;;;;;;;3.80;2.50;;;16.70;86.70;;;;;;5012203;28;20026;-79
2022/06/03 14:14:11;;;;;;;3.58;2.50;;;16.80;86.80;;;;;;5019793;28;20022;-79
2022/06/03 14:17:05;;;;;;;4.45;2.70;;;16.70;86.80;;;;;;5020378;28;20475;-79
2022/06/03 14:19:42;;;;;;;3.35;2.45;;;16.70;86.90;;;;;;5020114;28;20088;-80
2022/06/03 14:22:39;;;;;;;4.65;2.72;;;16.80;86.90;;;;;;5018481;28;20061;-79
2022/06/03 14:25:19;;;;;;;4.13;2.67;;;16.80;86.70;;;;;;5015115;28;20034;-74
2022/06/03 14:28:01;;;;;;;4.75;2.65;;;16.80;86.80;;;;;;5010549;28;20495;-74